createdAt,value
2023-01-09T00:02:04.456Z,11.02
2023-01-09T00:04:49.751Z,9.75
2023-01-09T00:07:35.270Z,10.38
2023-01-09T00:10:20.437Z,11.10
2023-01-09T00:13:05.704Z,10.68
2023-01-09T00:15:51.027Z,10.82
2023-01-09T00:18:37.152Z,10.40
2023-01-09T00:21:22.855Z,11.00
2023-01-09T00:24:08.415Z,11.23
2023-01-09T00:26:53.487Z,10.32
2023-01-09T00:29:38.907Z,10.90
2023-01-09T00:32:24.520Z,11.07
2023-01-09T00:35:14.233Z,11.45
2023-01-09T00:37:59.416Z,10.73
2023-01-09T00:40:44.530Z,10.75
2023-01-09T00:43:35.564Z,10.05
2023-01-09T00:46:26.096Z,11.20
2023-01-09T00:49:13.893Z,11.15
2023-01-09T00:51:59.221Z,11.65
2023-01-09T00:54:45.252Z,11.48
2023-01-09T00:57:30.994Z,12.23
2023-01-09T01:00:16.496Z,12.63
2023-01-09T01:03:02.311Z,12.10
2023-01-09T01:06:06.281Z,12.18
2023-01-09T01:08:51.331Z,11.13
2023-01-09T01:11:36.798Z,10.93
2023-01-09T01:14:22.802Z,11.65
2023-01-09T01:17:08.002Z,13.32
2023-01-09T01:19:53.117Z,11.45
2023-01-09T01:22:38.656Z,11.88
2023-01-09T01:25:23.783Z,12.15
2023-01-09T01:28:10.329Z,12.80
2023-01-09T01:30:55.693Z,12.63
2023-01-09T01:33:41.041Z,13.05
2023-01-09T01:36:26.430Z,12.68
2023-01-09T01:39:12.081Z,12.57
2023-01-09T01:41:57.336Z,12.52
2023-01-09T01:45:00.849Z,12.35
2023-01-09T01:47:52.973Z,12.40
2023-01-09T01:50:46.406Z,13.02
2023-01-09T01:53:44.785Z,13.05
2023-01-09T01:56:40.385Z,12.63
2023-01-09T01:59:31.682Z,13.13
2023-01-09T02:02:25.361Z,12.68
2023-01-09T02:05:11.444Z,11.88
2023-01-09T02:07:56.897Z,14.15
2023-01-09T02:10:43.543Z,13.80
2023-01-09T02:13:29.630Z,14.05
2023-01-09T02:16:30.757Z,14.93
2023-01-09T02:19:54.637Z,14.18
2023-01-09T02:23:07.467Z,14.25
2023-01-09T02:26:23.362Z,15.25
2023-01-09T02:29:32.807Z,14.23
2023-01-09T02:32:49.325Z,14.60
2023-01-09T02:35:49.576Z,13.60
2023-01-09T02:39:19.771Z,14.50
2023-01-09T02:42:22.517Z,15.15
2023-01-09T02:45:07.880Z,14.52
2023-01-09T02:47:53.093Z,15.07
2023-01-09T02:50:59.705Z,14.73
2023-01-09T02:54:04.310Z,15.52
2023-01-09T02:57:08.553Z,15.32
2023-01-09T03:00:08.049Z,15.60
2023-01-09T03:08:52.903Z,14.63
2023-01-09T03:11:42.818Z,15.70
2023-01-09T03:14:32.357Z,16.23
2023-01-09T03:17:25.939Z,15.63
2023-01-09T03:20:15.185Z,15.00
2023-01-09T03:23:02.814Z,16.20
2023-01-09T03:25:48.087Z,15.93
2023-01-09T03:28:33.642Z,16.15
2023-01-09T03:31:19.076Z,15.88
2023-01-09T03:34:04.658Z,15.60
2023-01-09T03:36:49.696Z,16.15
2023-01-09T03:39:34.864Z,16.23
2023-01-09T03:42:20.416Z,16.13
2023-01-09T03:45:06.564Z,16.25
2023-01-09T03:47:53.013Z,16.10
2023-01-09T03:50:38.385Z,16.38
2023-01-09T03:53:25.228Z,15.25
2023-01-09T03:56:10.635Z,16.13
2023-01-09T03:58:56.048Z,16.20
2023-01-09T04:01:41.475Z,16.13
2023-01-09T04:04:26.841Z,16.80
2023-01-09T04:07:12.312Z,15.05
2023-01-09T04:09:57.588Z,17.70
2023-01-09T04:12:42.884Z,15.15
2023-01-09T04:15:28.656Z,15.57
2023-01-09T04:18:14.700Z,16.73
2023-01-09T04:20:59.959Z,15.43
2023-01-09T04:23:45.570Z,15.48
2023-01-09T04:26:30.606Z,14.50
2023-01-09T04:29:16.068Z,16.05
2023-01-09T04:32:01.496Z,15.85
2023-01-09T04:34:46.805Z,15.32
2023-01-09T04:37:31.939Z,15.68
2023-01-09T04:40:17.862Z,15.75
2023-01-09T04:43:03.165Z,14.80
2023-01-09T04:45:48.512Z,15.85
2023-01-09T04:48:33.912Z,15.80
2023-01-09T04:51:19.240Z,16.25
2023-01-09T04:54:05.368Z,15.65
2023-01-09T04:56:50.730Z,15.73
2023-01-09T04:59:35.890Z,16.25
2023-01-09T05:02:21.202Z,16.20
2023-01-09T05:05:10.420Z,16.23
2023-01-09T05:07:56.614Z,17.00
2023-01-09T05:10:42.193Z,16.75
2023-01-09T05:13:27.823Z,16.05
2023-01-09T05:16:13.184Z,16.65
2023-01-09T05:19:00.312Z,15.75
2023-01-09T05:21:45.335Z,16.20
2023-01-09T05:24:30.777Z,15.90
2023-01-09T05:27:16.247Z,16.73
2023-01-09T05:30:01.710Z,16.20
2023-01-09T05:32:48.602Z,16.73
2023-01-09T05:35:34.048Z,15.98
2023-01-09T05:38:19.357Z,16.52
2023-01-09T05:41:04.949Z,16.25
2023-01-09T05:43:50.458Z,16.13
2023-01-09T05:46:35.993Z,16.73
2023-01-09T05:49:21.406Z,15.85
2023-01-09T05:52:07.820Z,17.02
2023-01-09T05:54:53.183Z,16.17
2023-01-09T05:57:38.279Z,15.63
2023-01-09T06:00:23.520Z,17.35
2023-01-09T06:03:08.702Z,15.55
2023-01-09T06:05:54.042Z,15.50
2023-01-09T06:08:39.258Z,16.38
2023-01-09T06:11:24.461Z,16.52
2023-01-09T06:14:09.582Z,16.08
2023-01-09T06:16:55.018Z,16.60
2023-01-09T06:19:40.322Z,16.92
2023-01-09T06:22:25.760Z,16.63
2023-01-09T06:27:57.700Z,17.50
2023-01-09T06:30:43.074Z,16.55
2023-01-09T06:33:29.281Z,16.30
2023-01-09T06:36:14.772Z,17.27
2023-01-09T06:39:00.188Z,17.55
2023-01-09T06:41:47.047Z,16.50
2023-01-09T06:44:36.383Z,17.63
2023-01-09T06:47:21.960Z,17.10
2023-01-09T06:50:09.227Z,16.65
2023-01-09T06:52:54.399Z,17.13
2023-01-09T06:55:39.626Z,17.10
2023-01-09T06:58:24.943Z,17.27
2023-01-09T07:01:10.569Z,18.38
2023-01-09T07:03:55.900Z,18.30
2023-01-09T07:06:40.962Z,16.67
2023-01-09T07:09:26.477Z,17.40
2023-01-09T07:12:12.768Z,17.30
2023-01-09T07:14:58.217Z,17.92
2023-01-09T07:17:43.539Z,17.42
2023-01-09T07:20:29.072Z,16.13
2023-01-09T07:23:15.315Z,16.50
2023-01-09T07:26:01.162Z,17.73
2023-01-09T07:28:46.502Z,18.60
2023-01-09T07:31:32.086Z,16.38
2023-01-09T07:34:17.291Z,17.65
2023-01-09T07:37:02.501Z,17.25
2023-01-09T07:39:47.567Z,17.17
2023-01-09T07:42:33.205Z,17.23
2023-01-09T07:45:18.414Z,16.48
2023-01-09T07:48:03.963Z,17.17
2023-01-09T07:50:49.242Z,16.88
2023-01-09T07:53:34.735Z,16.63
2023-01-09T07:56:20.386Z,17.58
2023-01-09T07:59:05.642Z,17.60
2023-01-09T08:01:50.895Z,18.65
2023-01-09T08:04:36.364Z,17.55
2023-01-09T08:07:21.395Z,16.70
2023-01-09T08:10:07.038Z,17.73
2023-01-09T08:12:52.301Z,17.42
2023-01-09T08:15:37.917Z,16.67
2023-01-09T08:18:23.088Z,21.88
2023-01-09T08:21:08.465Z,16.90
2023-01-09T08:23:53.775Z,16.25
2023-01-09T08:26:39.081Z,16.50
2023-01-09T08:29:24.283Z,15.32
2023-01-09T08:32:09.607Z,16.20
2023-01-09T08:34:54.940Z,16.33
2023-01-09T08:37:44.342Z,15.15
2023-01-09T08:40:29.726Z,16.30
2023-01-09T08:43:33.574Z,17.15
2023-01-09T08:46:40.076Z,16.70
2023-01-09T08:49:25.200Z,16.48
2023-01-09T08:52:10.565Z,16.38
2023-01-09T08:54:55.722Z,15.45
2023-01-09T08:57:49.221Z,17.13
2023-01-09T09:00:34.753Z,16.42
2023-01-09T09:03:19.825Z,16.70
2023-01-09T09:06:09.444Z,15.82
2023-01-09T09:08:54.665Z,16.08
2023-01-09T09:11:40.038Z,15.80
2023-01-09T09:14:43.909Z,16.02
2023-01-09T09:17:29.265Z,16.70
2023-01-09T09:20:14.384Z,17.30
2023-01-09T09:22:59.819Z,15.20
2023-01-09T09:25:44.959Z,16.73
2023-01-09T09:28:30.673Z,16.30
2023-01-09T09:31:16.051Z,16.25
2023-01-09T09:34:01.992Z,16.02
2023-01-09T09:36:48.524Z,17.83
2023-01-09T09:39:34.308Z,17.45
2023-01-09T09:43:33.215Z,16.10
2023-01-09T09:46:32.572Z,17.00
2023-01-09T09:49:27.163Z,14.98
2023-01-09T09:52:37.572Z,15.00
2023-01-09T09:55:35.404Z,15.93
2023-01-09T09:58:36.612Z,14.63
2023-01-09T10:01:27.151Z,19.58
2023-01-09T10:04:16.572Z,15.07
2023-01-09T10:07:09.768Z,13.23
2023-01-09T10:10:00.513Z,12.50
2023-01-09T10:12:53.564Z,12.63
2023-01-09T10:15:46.377Z,12.32
2023-01-09T10:18:43.837Z,12.10
2023-01-09T10:21:50.522Z,12.40
2023-01-09T10:24:44.895Z,12.02
2023-01-09T10:28:02.501Z,10.75
2023-01-09T10:30:53.153Z,10.27
2023-01-09T10:34:13.938Z,10.82
2023-01-09T10:37:02.016Z,10.68
2023-01-09T10:39:57.349Z,10.73
2023-01-09T10:42:52.265Z,9.70
2023-01-09T10:45:54.519Z,10.30
2023-01-09T10:48:44.295Z,9.35
2023-01-09T10:51:41.685Z,10.10
2023-01-09T10:54:29.414Z,9.77
2023-01-09T10:57:27.170Z,8.90
2023-01-09T11:00:18.702Z,8.93
2023-01-09T11:03:03.941Z,8.57
2023-01-09T11:05:55.601Z,7.95
2023-01-09T11:08:45.205Z,8.73
2023-01-09T11:11:34.044Z,8.45
2023-01-09T11:14:33.232Z,8.87
2023-01-09T11:17:21.568Z,8.95
2023-01-09T11:20:16.176Z,9.07
2023-01-09T11:23:01.790Z,8.73
2023-01-09T11:25:53.965Z,9.27
2023-01-09T11:28:39.356Z,7.53
2023-01-09T11:31:25.824Z,7.45
2023-01-09T11:34:20.558Z,5.40
2023-01-09T11:37:13.978Z,5.90
2023-01-09T11:40:00.839Z,5.40
2023-01-09T11:43:03.104Z,5.40
2023-01-09T11:46:01.387Z,5.65
2023-01-09T11:48:58.168Z,5.18
2023-01-09T11:51:43.951Z,5.47
2023-01-09T11:54:34.064Z,4.35
2023-01-09T11:57:21.547Z,5.22
2023-01-09T12:00:32.664Z,4.95
2023-01-09T12:03:36.677Z,4.07
2023-01-09T12:06:47.132Z,4.15
2023-01-09T12:10:08.158Z,3.90
2023-01-09T12:13:00.936Z,3.70
2023-01-09T12:16:15.266Z,3.47
2023-01-09T12:19:18.913Z,2.95
2023-01-09T12:22:27.028Z,3.20
2023-01-09T12:25:29.011Z,3.17
2023-01-09T12:28:42.598Z,3.60
2023-01-09T12:31:49.898Z,3.38
2023-01-09T12:34:50.589Z,3.65
2023-01-09T12:38:05.240Z,3.58
2023-01-09T12:41:11.207Z,3.85
2023-01-09T12:43:59.552Z,3.65
2023-01-09T12:47:06.386Z,3.67
2023-01-09T12:50:21.046Z,3.22
2023-01-09T12:53:12.663Z,2.80
2023-01-09T12:56:08.973Z,3.05
2023-01-09T12:59:00.141Z,3.30
2023-01-09T13:01:48.516Z,3.47
2023-01-09T13:04:43.043Z,2.80
2023-01-09T13:07:34.131Z,3.50
2023-01-09T13:10:47.893Z,3.15
2023-01-09T13:13:44.553Z,2.92
2023-01-09T13:16:56.983Z,3.35
2023-01-09T13:19:42.710Z,3.10
2023-01-09T13:22:29.357Z,3.33
2023-01-09T13:25:33.942Z,3.22
2023-01-09T13:28:24.747Z,3.42
2023-01-09T13:31:23.464Z,2.83
2023-01-09T13:34:23.492Z,2.57
2023-01-09T13:37:24.834Z,3.17
2023-01-09T13:40:15.876Z,3.22
2023-01-09T13:43:09.641Z,5.18
2023-01-09T13:45:55.222Z,2.53
2023-01-09T13:48:41.491Z,2.97
2023-01-09T13:51:37.300Z,3.28
2023-01-09T13:55:00.153Z,3.08
2023-01-09T13:58:05.553Z,2.67
2023-01-09T14:00:54.161Z,3.95
2023-01-09T14:03:39.982Z,3.20
2023-01-09T14:06:28.002Z,2.78
2023-01-09T14:09:22.936Z,2.30
2023-01-09T14:12:08.417Z,2.55
2023-01-09T14:14:57.477Z,3.03
2023-01-09T14:17:43.007Z,2.60
2023-01-09T14:20:37.689Z,3.10
2023-01-09T14:23:53.392Z,3.40
2023-01-09T14:26:42.666Z,2.63
2023-01-09T14:29:43.805Z,2.70
2023-01-09T14:32:33.765Z,2.30
2023-01-09T14:35:28.223Z,2.63
2023-01-09T14:38:26.589Z,2.28
2023-01-09T14:41:55.766Z,2.60
2023-01-09T14:45:02.890Z,2.90
2023-01-09T14:48:11.726Z,2.60
2023-01-09T14:50:59.817Z,2.60
2023-01-09T14:53:46.031Z,2.38
2023-01-09T14:56:34.775Z,3.08
2023-01-09T14:59:20.107Z,2.40
2023-01-09T15:02:10.958Z,2.35
2023-01-09T15:05:01.872Z,3.15
2023-01-09T15:08:00.210Z,3.00
2023-01-09T15:10:47.540Z,3.25
2023-01-09T15:13:48.045Z,3.28
2023-01-09T15:16:33.995Z,3.70
2023-01-09T15:19:20.004Z,4.90
2023-01-09T15:22:20.375Z,4.75
2023-01-09T15:25:27.358Z,3.22
2023-01-09T15:28:22.333Z,3.70
2023-01-09T15:31:13.968Z,5.20
2023-01-09T15:33:59.341Z,5.63
2023-01-09T15:36:44.845Z,4.32
2023-01-09T15:39:37.299Z,4.43
2023-01-09T15:42:45.089Z,4.05
2023-01-09T15:45:33.684Z,5.30
2023-01-09T15:48:30.808Z,4.72
2023-01-09T15:51:18.314Z,4.57
2023-01-09T15:54:04.085Z,4.18
2023-01-09T15:56:49.549Z,4.07
2023-01-09T15:59:35.045Z,4.30
2023-01-09T16:02:40.526Z,3.40
2023-01-09T16:05:25.769Z,3.70
2023-01-09T16:08:21.021Z,3.65
2023-01-09T16:11:10.753Z,4.45
2023-01-09T16:14:00.871Z,5.15
2023-01-09T16:16:47.609Z,5.20
2023-01-09T16:19:48.188Z,5.60
2023-01-09T16:22:35.796Z,4.30
2023-01-09T16:25:34.837Z,6.60
2023-01-09T16:28:26.785Z,5.13
2023-01-09T16:31:21.387Z,4.07
2023-01-09T16:34:07.090Z,4.32
2023-01-09T16:36:52.402Z,5.00
2023-01-09T16:39:38.718Z,3.10
2023-01-09T16:42:42.765Z,5.05
2023-01-09T16:45:40.327Z,4.10
2023-01-09T16:48:25.524Z,2.72
2023-01-09T16:51:15.026Z,3.50
2023-01-09T16:54:00.227Z,3.67
2023-01-09T16:56:49.155Z,4.22
2023-01-09T16:59:34.273Z,3.03
2023-01-09T17:02:20.505Z,2.33
2023-01-09T17:05:06.138Z,3.35
2023-01-09T17:07:51.339Z,2.97
2023-01-09T17:10:36.935Z,2.90
2023-01-09T17:13:23.054Z,4.63
2023-01-09T17:16:10.996Z,2.70
2023-01-09T17:18:56.355Z,2.80
2023-01-09T17:21:41.445Z,2.63
2023-01-09T17:24:45.250Z,3.40
2023-01-09T17:27:52.937Z,2.95
2023-01-09T17:30:38.206Z,2.72
2023-01-09T17:33:23.402Z,2.60
2023-01-09T17:36:31.820Z,4.13
2023-01-09T17:39:17.667Z,4.88
2023-01-09T17:42:02.894Z,3.20
2023-01-09T17:44:48.069Z,2.67
2023-01-09T17:47:33.926Z,2.70
2023-01-09T17:50:20.813Z,2.88
2023-01-09T17:53:06.313Z,3.38
2023-01-09T17:55:51.785Z,2.45
2023-01-09T17:58:37.111Z,2.80
2023-01-09T18:01:22.211Z,2.25
2023-01-09T18:04:07.558Z,2.63
2023-01-09T18:06:54.519Z,3.35
2023-01-09T18:09:39.578Z,4.15
2023-01-09T18:12:25.142Z,3.38
2023-01-09T18:15:10.698Z,3.42
2023-01-09T18:17:55.838Z,2.90
2023-01-09T18:20:45.020Z,2.40
2023-01-09T18:23:30.317Z,2.13
2023-01-09T18:26:22.782Z,2.88
2023-01-09T18:29:09.343Z,2.83
2023-01-09T18:31:55.062Z,3.38
2023-01-09T18:34:40.371Z,3.85
2023-01-09T18:37:25.564Z,3.05
2023-01-09T18:40:11.176Z,3.08
2023-01-09T18:42:56.137Z,2.97
2023-01-09T18:45:41.646Z,3.65
2023-01-09T18:48:26.776Z,3.33
2023-01-09T18:51:12.037Z,4.50
2023-01-09T18:53:58.612Z,4.72
2023-01-09T18:56:44.182Z,4.72
2023-01-09T18:59:29.565Z,3.55
2023-01-09T19:02:24.509Z,2.97
2023-01-09T19:05:10.018Z,3.28
2023-01-09T19:07:55.238Z,3.90
2023-01-09T19:10:40.560Z,4.72
2023-01-09T19:13:30.446Z,4.38
2023-01-09T19:16:16.752Z,4.18
2023-01-09T19:19:02.766Z,4.65
2023-01-09T19:21:48.401Z,3.53
2023-01-09T19:24:34.048Z,3.58
2023-01-09T19:27:19.142Z,6.03
2023-01-09T19:30:05.542Z,4.50
2023-01-09T19:32:51.042Z,3.90
2023-01-09T19:35:36.371Z,2.95
2023-01-09T19:38:26.687Z,2.42
2023-01-09T19:41:21.303Z,2.92
2023-01-09T19:44:06.722Z,2.45
2023-01-09T19:46:52.304Z,2.20
2023-01-09T19:49:37.985Z,2.50
2023-01-09T19:52:23.230Z,3.28
2023-01-09T19:55:11.121Z,2.55
2023-01-09T19:57:56.574Z,2.40
2023-01-09T20:00:42.264Z,3.90
2023-01-09T20:03:27.370Z,3.13
2023-01-09T20:06:17.493Z,2.97
2023-01-09T20:09:04.794Z,4.07
2023-01-09T20:11:50.234Z,2.63
2023-01-09T20:14:37.607Z,2.03
2023-01-09T20:17:24.003Z,2.40
2023-01-09T20:20:10.163Z,2.40
2023-01-09T20:22:55.637Z,3.42
2023-01-09T20:25:41.167Z,2.20
2023-01-09T20:28:27.853Z,2.22
2023-01-09T20:31:16.331Z,3.08
2023-01-09T20:34:01.970Z,2.92
2023-01-09T20:36:47.667Z,1.55
2023-01-09T20:39:33.096Z,1.92
2023-01-09T20:42:18.645Z,3.15
2023-01-09T20:45:04.243Z,4.00
2023-01-09T20:47:50.432Z,3.05
2023-01-09T20:50:35.569Z,2.38
2023-01-09T20:53:20.978Z,2.35
2023-01-09T20:56:07.603Z,3.25
2023-01-09T20:58:53.211Z,2.53
2023-01-09T21:01:40.225Z,2.00
2023-01-09T21:04:25.351Z,2.22
2023-01-09T21:07:10.884Z,2.50
2023-01-09T21:09:56.422Z,2.00
2023-01-09T21:12:41.860Z,1.70
2023-01-09T21:15:27.238Z,1.98
2023-01-09T21:18:12.571Z,2.63
2023-01-09T21:21:03.283Z,2.00
2023-01-09T21:23:53.926Z,2.65
2023-01-09T21:26:39.614Z,3.88
2023-01-09T21:29:24.915Z,2.92
2023-01-09T21:32:10.518Z,2.10
2023-01-09T21:34:55.788Z,2.60
2023-01-09T21:37:41.341Z,2.15
2023-01-09T21:40:26.655Z,2.22
2023-01-09T21:43:48.202Z,2.35
2023-01-09T21:46:51.579Z,2.72
2023-01-09T21:49:40.586Z,2.40
2023-01-09T21:52:25.851Z,2.25
2023-01-09T21:55:11.339Z,2.50
2023-01-09T21:57:56.841Z,2.90
2023-01-09T22:00:42.136Z,2.75
2023-01-09T22:03:27.544Z,4.28
2023-01-09T22:06:13.032Z,2.00
2023-01-09T22:08:58.480Z,3.33
2023-01-09T22:11:44.485Z,2.85
2023-01-09T22:14:30.357Z,2.80
2023-01-09T22:17:15.865Z,2.20
2023-01-09T22:20:01.412Z,3.08
2023-01-09T22:22:48.476Z,2.85
2023-01-09T22:25:36.775Z,2.33
2023-01-09T22:28:22.764Z,2.45
2023-01-09T22:31:10.532Z,2.58
2023-01-09T22:33:57.809Z,3.17
2023-01-09T22:36:50.293Z,2.42
2023-01-09T22:39:35.531Z,2.17
2023-01-09T22:42:20.619Z,2.10
2023-01-09T22:45:07.382Z,2.50
2023-01-09T22:47:53.177Z,2.33
2023-01-09T22:50:38.763Z,2.80
2023-01-09T22:53:24.075Z,2.67
2023-01-09T22:56:15.088Z,2.75
2023-01-09T22:59:01.062Z,2.83
2023-01-09T23:01:46.334Z,2.10
2023-01-09T23:04:31.656Z,2.42
2023-01-09T23:07:17.202Z,2.72
2023-01-09T23:10:03.478Z,2.35
2023-01-09T23:12:50.223Z,2.13
2023-01-09T23:15:35.377Z,2.22
2023-01-09T23:18:21.369Z,2.58
2023-01-09T23:21:06.845Z,2.30
2023-01-09T23:23:51.995Z,1.77
2023-01-09T23:26:43.462Z,2.25
2023-01-09T23:29:28.942Z,2.55
2023-01-09T23:32:14.286Z,3.33
2023-01-09T23:35:00.161Z,2.67
2023-01-09T23:37:45.458Z,2.40
2023-01-09T23:40:31.216Z,2.35
2023-01-09T23:43:16.467Z,2.83
2023-01-09T23:46:02.085Z,3.22
2023-01-09T23:48:48.730Z,2.83
2023-01-09T23:51:33.848Z,3.70
2023-01-09T23:54:19.211Z,3.30
2023-01-09T23:57:04.501Z,2.72
2023-01-09T23:59:49.733Z,3.63
